sensor_id;sensor_type;location;lat;lon;timestamp;P1;durP1;ratioP1;P2;durP2;ratioP2
33644;SDS011;19986;48.190;16.366;2022-10-16T00:01:16;93.22;;;84.38;;
33644;SDS011;19986;48.190;16.366;2022-10-16T00:03:44;97.60;;;88.40;;
33644;SDS011;19986;48.190;16.366;2022-10-16T00:06:11;97.18;;;87.85;;
33644;SDS011;19986;48.190;16.366;2022-10-16T00:08:37;94.78;;;85.97;;
33644;SDS011;19986;48.190;16.366;2022-10-16T00:13:32;98.28;;;88.38;;
33644;SDS011;19986;48.190;16.366;2022-10-16T00:16:00;97.80;;;87.90;;
33644;SDS011;19986;48.190;16.366;2022-10-16T00:18:27;97.93;;;88.43;;
33644;SDS011;19986;48.190;16.366;2022-10-16T00:20:53;98.85;;;88.97;;
33644;SDS011;19986;48.190;16.366;2022-10-16T00:23:20;96.57;;;87.18;;
33644;SDS011;19986;48.190;16.366;2022-10-16T00:25:56;95.55;;;86.28;;
33644;SDS011;19986;48.190;16.366;2022-10-16T00:28:24;101.75;;;91.05;;
33644;SDS011;19986;48.190;16.366;2022-10-16T00:30:51;100.55;;;90.22;;
33644;SDS011;19986;48.190;16.366;2022-10-16T00:33:17;106.78;;;95.13;;
33644;SDS011;19986;48.190;16.366;2022-10-16T00:35:43;101.18;;;90.78;;
33644;SDS011;19986;48.190;16.366;2022-10-16T00:38:09;106.07;;;95.18;;
33644;SDS011;19986;48.190;16.366;2022-10-16T00:40:35;102.63;;;92.20;;
33644;SDS011;19986;48.190;16.366;2022-10-16T00:43:01;98.82;;;88.82;;
33644;SDS011;19986;48.190;16.366;2022-10-16T00:45:26;96.28;;;86.53;;
33644;SDS011;19986;48.190;16.366;2022-10-16T00:47:53;98.80;;;88.63;;
33644;SDS011;19986;48.190;16.366;2022-10-16T00:52:54;105.03;;;94.10;;
33644;SDS011;19986;48.190;16.366;2022-10-16T00:55:21;101.25;;;91.32;;
33644;SDS011;19986;48.190;16.366;2022-10-16T00:57:47;95.13;;;85.80;;
33644;SDS011;19986;48.190;16.366;2022-10-16T01:00:16;100.28;;;90.00;;
33644;SDS011;19986;48.190;16.366;2022-10-16T01:02:44;97.57;;;87.85;;
33644;SDS011;19986;48.190;16.366;2022-10-16T01:05:10;97.97;;;88.75;;
33644;SDS011;19986;48.190;16.366;2022-10-16T01:13:15;100.32;;;90.70;;
33644;SDS011;19986;48.190;16.366;2022-10-16T01:16:05;96.03;;;86.57;;
33644;SDS011;19986;48.190;16.366;2022-10-16T01:18:44;98.38;;;88.57;;
33644;SDS011;19986;48.190;16.366;2022-10-16T01:21:27;91.05;;;82.20;;
33644;SDS011;19986;48.190;16.366;2022-10-16T01:29:50;95.18;;;85.93;;
33644;SDS011;19986;48.190;16.366;2022-10-16T01:32:35;99.15;;;86.85;;
33644;SDS011;19986;48.190;16.366;2022-10-16T01:35:11;99.95;;;89.90;;
33644;SDS011;19986;48.190;16.366;2022-10-16T01:41:04;105.60;;;93.38;;
33644;SDS011;19986;48.190;16.366;2022-10-16T01:43:39;107.65;;;93.88;;
33644;SDS011;19986;48.190;16.366;2022-10-16T01:46:09;152.23;;;102.90;;
33644;SDS011;19986;48.190;16.366;2022-10-16T01:48:36;123.60;;;94.65;;
33644;SDS011;19986;48.190;16.366;2022-10-16T01:51:04;163.18;;;102.07;;
33644;SDS011;19986;48.190;16.366;2022-10-16T01:53:36;117.82;;;94.32;;
33644;SDS011;19986;48.190;16.366;2022-10-16T01:56:03;107.63;;;95.90;;
33644;SDS011;19986;48.190;16.366;2022-10-16T01:58:34;99.10;;;88.93;;
33644;SDS011;19986;48.190;16.366;2022-10-16T02:01:04;122.85;;;98.40;;
33644;SDS011;19986;48.190;16.366;2022-10-16T02:03:35;103.78;;;90.80;;
33644;SDS011;19986;48.190;16.366;2022-10-16T02:06:06;100.75;;;90.40;;
33644;SDS011;19986;48.190;16.366;2022-10-16T02:08:32;105.05;;;93.85;;
33644;SDS011;19986;48.190;16.366;2022-10-16T02:10:59;96.72;;;86.80;;
33644;SDS011;19986;48.190;16.366;2022-10-16T02:13:31;94.13;;;84.15;;
33644;SDS011;19986;48.190;16.366;2022-10-16T02:16:11;103.68;;;92.30;;
33644;SDS011;19986;48.190;16.366;2022-10-16T02:18:38;104.40;;;93.10;;
33644;SDS011;19986;48.190;16.366;2022-10-16T02:23:45;91.85;;;83.32;;
33644;SDS011;19986;48.190;16.366;2022-10-16T02:27:23;90.30;;;81.15;;
33644;SDS011;19986;48.190;16.366;2022-10-16T02:29:27;90.30;;;81.85;;
33644;SDS011;19986;48.190;16.366;2022-10-16T02:31:55;90.72;;;81.93;;
33644;SDS011;19986;48.190;16.366;2022-10-16T02:34:25;88.90;;;79.90;;
33644;SDS011;19986;48.190;16.366;2022-10-16T02:36:54;89.65;;;80.97;;
33644;SDS011;19986;48.190;16.366;2022-10-16T02:39:21;88.32;;;79.72;;
33644;SDS011;19986;48.190;16.366;2022-10-16T02:41:47;87.65;;;78.90;;
33644;SDS011;19986;48.190;16.366;2022-10-16T02:44:13;89.22;;;80.57;;
33644;SDS011;19986;48.190;16.366;2022-10-16T02:46:39;88.80;;;80.00;;
33644;SDS011;19986;48.190;16.366;2022-10-16T02:49:05;86.95;;;78.88;;
33644;SDS011;19986;48.190;16.366;2022-10-16T02:51:30;86.22;;;78.10;;
33644;SDS011;19986;48.190;16.366;2022-10-16T02:53:56;88.28;;;79.78;;
33644;SDS011;19986;48.190;16.366;2022-10-16T02:56:22;83.28;;;75.78;;
33644;SDS011;19986;48.190;16.366;2022-10-16T02:58:49;85.15;;;77.20;;
33644;SDS011;19986;48.190;16.366;2022-10-16T03:01:14;85.25;;;77.30;;
33644;SDS011;19986;48.190;16.366;2022-10-16T03:03:42;82.68;;;74.75;;
33644;SDS011;19986;48.190;16.366;2022-10-16T03:06:08;83.38;;;75.78;;
33644;SDS011;19986;48.190;16.366;2022-10-16T03:08:33;81.65;;;74.15;;
33644;SDS011;19986;48.190;16.366;2022-10-16T03:10:59;80.38;;;73.03;;
33644;SDS011;19986;48.190;16.366;2022-10-16T03:13:25;79.15;;;71.82;;
33644;SDS011;19986;48.190;16.366;2022-10-16T03:15:51;79.68;;;72.18;;
33644;SDS011;19986;48.190;16.366;2022-10-16T03:18:17;81.05;;;73.95;;
33644;SDS011;19986;48.190;16.366;2022-10-16T03:20:43;78.13;;;71.22;;
33644;SDS011;19986;48.190;16.366;2022-10-16T03:23:09;79.45;;;72.28;;
33644;SDS011;19986;48.190;16.366;2022-10-16T03:25:35;80.88;;;73.80;;
33644;SDS011;19986;48.190;16.366;2022-10-16T03:28:00;79.75;;;72.57;;
33644;SDS011;19986;48.190;16.366;2022-10-16T03:30:26;78.97;;;71.70;;
33644;SDS011;19986;48.190;16.366;2022-10-16T03:32:52;76.88;;;70.15;;
33644;SDS011;19986;48.190;16.366;2022-10-16T03:35:19;83.82;;;76.15;;
33644;SDS011;19986;48.190;16.366;2022-10-16T03:37:46;80.45;;;73.22;;
33644;SDS011;19986;48.190;16.366;2022-10-16T03:40:12;82.30;;;74.85;;
33644;SDS011;19986;48.190;16.366;2022-10-16T03:42:39;77.53;;;70.75;;
33644;SDS011;19986;48.190;16.366;2022-10-16T03:45:05;77.13;;;70.25;;
33644;SDS011;19986;48.190;16.366;2022-10-16T03:47:31;78.40;;;71.25;;
33644;SDS011;19986;48.190;16.366;2022-10-16T03:49:58;80.20;;;72.90;;
33644;SDS011;19986;48.190;16.366;2022-10-16T03:52:24;79.07;;;72.10;;
33644;SDS011;19986;48.190;16.366;2022-10-16T03:54:50;79.18;;;72.35;;
33644;SDS011;19986;48.190;16.366;2022-10-16T03:57:16;79.13;;;72.28;;
33644;SDS011;19986;48.190;16.366;2022-10-16T03:59:42;80.53;;;73.53;;
33644;SDS011;19986;48.190;16.366;2022-10-16T04:02:08;81.50;;;74.30;;
33644;SDS011;19986;48.190;16.366;2022-10-16T04:04:34;77.65;;;70.95;;
33644;SDS011;19986;48.190;16.366;2022-10-16T04:07:00;77.38;;;70.40;;
33644;SDS011;19986;48.190;16.366;2022-10-16T04:09:26;76.63;;;69.97;;
33644;SDS011;19986;48.190;16.366;2022-10-16T04:11:52;78.78;;;71.68;;
33644;SDS011;19986;48.190;16.366;2022-10-16T04:14:18;72.65;;;66.60;;
33644;SDS011;19986;48.190;16.366;2022-10-16T04:16:45;71.50;;;65.57;;
33644;SDS011;19986;48.190;16.366;2022-10-16T04:19:11;67.82;;;62.20;;
33644;SDS011;19986;48.190;16.366;2022-10-16T04:21:37;70.82;;;64.93;;
33644;SDS011;19986;48.190;16.366;2022-10-16T04:24:03;67.13;;;61.60;;
33644;SDS011;19986;48.190;16.366;2022-10-16T04:26:29;69.28;;;63.22;;
33644;SDS011;19986;48.190;16.366;2022-10-16T04:28:55;68.78;;;62.92;;
33644;SDS011;19986;48.190;16.366;2022-10-16T04:31:21;70.35;;;64.65;;
33644;SDS011;19986;48.190;16.366;2022-10-16T04:33:47;66.72;;;61.42;;
33644;SDS011;19986;48.190;16.366;2022-10-16T04:36:13;66.55;;;61.25;;
33644;SDS011;19986;48.190;16.366;2022-10-16T04:38:39;68.63;;;63.30;;
33644;SDS011;19986;48.190;16.366;2022-10-16T04:41:06;64.20;;;59.20;;
33644;SDS011;19986;48.190;16.366;2022-10-16T04:43:32;65.15;;;59.95;;
33644;SDS011;19986;48.190;16.366;2022-10-16T04:45:59;65.15;;;60.05;;
33644;SDS011;19986;48.190;16.366;2022-10-16T04:48:25;67.15;;;62.15;;
33644;SDS011;19986;48.190;16.366;2022-10-16T04:50:50;62.65;;;57.47;;
33644;SDS011;19986;48.190;16.366;2022-10-16T04:53:16;63.75;;;58.50;;
33644;SDS011;19986;48.190;16.366;2022-10-16T04:55:43;64.43;;;59.33;;
33644;SDS011;19986;48.190;16.366;2022-10-16T04:58:08;65.15;;;59.75;;
33644;SDS011;19986;48.190;16.366;2022-10-16T05:00:35;63.53;;;58.17;;
33644;SDS011;19986;48.190;16.366;2022-10-16T05:03:01;65.82;;;60.50;;
33644;SDS011;19986;48.190;16.366;2022-10-16T05:05:31;63.42;;;58.25;;
33644;SDS011;19986;48.190;16.366;2022-10-16T05:07:56;65.40;;;60.17;;
33644;SDS011;19986;48.190;16.366;2022-10-16T05:10:22;64.75;;;59.42;;
33644;SDS011;19986;48.190;16.366;2022-10-16T05:12:48;64.25;;;58.90;;
33644;SDS011;19986;48.190;16.366;2022-10-16T05:15:17;66.13;;;60.83;;
33644;SDS011;19986;48.190;16.366;2022-10-16T05:17:43;65.75;;;60.13;;
33644;SDS011;19986;48.190;16.366;2022-10-16T05:20:10;63.03;;;57.78;;
33644;SDS011;19986;48.190;16.366;2022-10-16T05:22:36;67.90;;;62.42;;
33644;SDS011;19986;48.190;16.366;2022-10-16T05:25:02;64.10;;;58.95;;
33644;SDS011;19986;48.190;16.366;2022-10-16T05:27:28;65.13;;;60.05;;
33644;SDS011;19986;48.190;16.366;2022-10-16T05:29:54;63.83;;;58.38;;
33644;SDS011;19986;48.190;16.366;2022-10-16T05:32:20;64.47;;;59.20;;
33644;SDS011;19986;48.190;16.366;2022-10-16T05:34:45;65.05;;;59.15;;
33644;SDS011;19986;48.190;16.366;2022-10-16T05:37:11;61.20;;;56.10;;
33644;SDS011;19986;48.190;16.366;2022-10-16T05:39:38;63.88;;;58.67;;
33644;SDS011;19986;48.190;16.366;2022-10-16T05:42:04;62.67;;;57.58;;
33644;SDS011;19986;48.190;16.366;2022-10-16T05:44:30;66.70;;;60.90;;
33644;SDS011;19986;48.190;16.366;2022-10-16T05:46:56;64.95;;;59.17;;
33644;SDS011;19986;48.190;16.366;2022-10-16T05:49:22;66.20;;;60.35;;
33644;SDS011;19986;48.190;16.366;2022-10-16T05:51:48;70.15;;;63.90;;
33644;SDS011;19986;48.190;16.366;2022-10-16T05:54:14;68.32;;;62.17;;
33644;SDS011;19986;48.190;16.366;2022-10-16T05:56:40;75.68;;;68.72;;
33644;SDS011;19986;48.190;16.366;2022-10-16T05:59:06;79.00;;;71.85;;
33644;SDS011;19986;48.190;16.366;2022-10-16T06:01:32;81.65;;;74.13;;
33644;SDS011;19986;48.190;16.366;2022-10-16T06:03:58;81.78;;;73.97;;
33644;SDS011;19986;48.190;16.366;2022-10-16T06:06:25;84.47;;;75.90;;
33644;SDS011;19986;48.190;16.366;2022-10-16T06:08:52;85.70;;;76.72;;
33644;SDS011;19986;48.190;16.366;2022-10-16T06:11:22;81.60;;;74.13;;
33644;SDS011;19986;48.190;16.366;2022-10-16T06:13:50;83.75;;;75.78;;
33644;SDS011;19986;48.190;16.366;2022-10-16T06:16:17;89.57;;;81.00;;
33644;SDS011;19986;48.190;16.366;2022-10-16T06:18:44;82.70;;;74.80;;
33644;SDS011;19986;48.190;16.366;2022-10-16T06:21:12;87.00;;;78.32;;
33644;SDS011;19986;48.190;16.366;2022-10-16T06:23:42;88.00;;;79.13;;
33644;SDS011;19986;48.190;16.366;2022-10-16T06:26:10;86.53;;;78.15;;
33644;SDS011;19986;48.190;16.366;2022-10-16T06:28:37;87.43;;;79.03;;
33644;SDS011;19986;48.190;16.366;2022-10-16T06:31:04;90.13;;;81.63;;
33644;SDS011;19986;48.190;16.366;2022-10-16T06:33:32;95.78;;;86.38;;
33644;SDS011;19986;48.190;16.366;2022-10-16T06:36:05;92.25;;;83.32;;
33644;SDS011;19986;48.190;16.366;2022-10-16T06:38:36;91.43;;;82.15;;
33644;SDS011;19986;48.190;16.366;2022-10-16T06:41:03;94.32;;;84.28;;
33644;SDS011;19986;48.190;16.366;2022-10-16T06:43:29;86.15;;;77.32;;
33644;SDS011;19986;48.190;16.366;2022-10-16T06:46:02;91.53;;;81.65;;
33644;SDS011;19986;48.190;16.366;2022-10-16T06:48:30;93.63;;;83.95;;
33644;SDS011;19986;48.190;16.366;2022-10-16T06:51:00;97.22;;;81.68;;
33644;SDS011;19986;48.190;16.366;2022-10-16T06:53:32;94.93;;;84.70;;
33644;SDS011;19986;48.190;16.366;2022-10-16T06:58:42;90.25;;;80.50;;
33644;SDS011;19986;48.190;16.366;2022-10-16T07:01:08;91.45;;;82.28;;
33644;SDS011;19986;48.190;16.366;2022-10-16T07:03:38;88.57;;;79.75;;
33644;SDS011;19986;48.190;16.366;2022-10-16T07:06:06;89.30;;;80.32;;
33644;SDS011;19986;48.190;16.366;2022-10-16T07:08:34;89.78;;;80.80;;
33644;SDS011;19986;48.190;16.366;2022-10-16T07:11:02;89.28;;;80.35;;
33644;SDS011;19986;48.190;16.366;2022-10-16T07:13:30;87.57;;;79.15;;
33644;SDS011;19986;48.190;16.366;2022-10-16T07:16:04;91.13;;;81.95;;
33644;SDS011;19986;48.190;16.366;2022-10-16T07:18:34;89.10;;;80.43;;
33644;SDS011;19986;48.190;16.366;2022-10-16T07:21:11;87.22;;;78.43;;
33644;SDS011;19986;48.190;16.366;2022-10-16T07:23:39;86.85;;;78.68;;
33644;SDS011;19986;48.190;16.366;2022-10-16T07:26:06;87.75;;;79.45;;
33644;SDS011;19986;48.190;16.366;2022-10-16T07:28:33;90.63;;;80.95;;
33644;SDS011;19986;48.190;16.366;2022-10-16T07:31:03;96.82;;;82.05;;
33644;SDS011;19986;48.190;16.366;2022-10-16T07:33:33;102.57;;;82.03;;
33644;SDS011;19986;48.190;16.366;2022-10-16T07:36:00;97.10;;;84.70;;
33644;SDS011;19986;48.190;16.366;2022-10-16T07:38:26;91.10;;;82.05;;
33644;SDS011;19986;48.190;16.366;2022-10-16T07:40:57;89.57;;;80.35;;
33644;SDS011;19986;48.190;16.366;2022-10-16T07:43:28;108.40;;;85.75;;
33644;SDS011;19986;48.190;16.366;2022-10-16T07:45:54;104.28;;;88.82;;
33644;SDS011;19986;48.190;16.366;2022-10-16T07:48:21;108.05;;;87.78;;
33644;SDS011;19986;48.190;16.366;2022-10-16T07:50:48;108.65;;;89.88;;
33644;SDS011;19986;48.190;16.366;2022-10-16T07:53:14;134.25;;;95.50;;
33644;SDS011;19986;48.190;16.366;2022-10-16T07:56:01;104.22;;;93.15;;
33644;SDS011;19986;48.190;16.366;2022-10-16T07:58:29;100.97;;;89.95;;
33644;SDS011;19986;48.190;16.366;2022-10-16T08:00:56;98.60;;;88.32;;
33644;SDS011;19986;48.190;16.366;2022-10-16T08:03:23;97.30;;;86.82;;
33644;SDS011;19986;48.190;16.366;2022-10-16T08:05:49;95.20;;;85.30;;
33644;SDS011;19986;48.190;16.366;2022-10-16T08:08:15;100.05;;;86.95;;
33644;SDS011;19986;48.190;16.366;2022-10-16T08:10:43;95.05;;;84.45;;
33644;SDS011;19986;48.190;16.366;2022-10-16T08:13:09;95.68;;;85.97;;
33644;SDS011;19986;48.190;16.366;2022-10-16T08:15:37;91.78;;;82.75;;
33644;SDS011;19986;48.190;16.366;2022-10-16T08:18:03;90.68;;;81.68;;
33644;SDS011;19986;48.190;16.366;2022-10-16T08:20:31;91.60;;;82.47;;
33644;SDS011;19986;48.190;16.366;2022-10-16T08:22:58;91.95;;;82.38;;
33644;SDS011;19986;48.190;16.366;2022-10-16T08:25:25;86.50;;;78.45;;
33644;SDS011;19986;48.190;16.366;2022-10-16T08:27:51;85.28;;;77.15;;
33644;SDS011;19986;48.190;16.366;2022-10-16T08:30:18;82.57;;;74.88;;
33644;SDS011;19986;48.190;16.366;2022-10-16T08:32:44;82.78;;;75.03;;
33644;SDS011;19986;48.190;16.366;2022-10-16T08:35:11;84.13;;;76.32;;
33644;SDS011;19986;48.190;16.366;2022-10-16T08:37:37;84.78;;;76.78;;
33644;SDS011;19986;48.190;16.366;2022-10-16T08:40:04;84.82;;;76.88;;
33644;SDS011;19986;48.190;16.366;2022-10-16T08:42:41;83.00;;;75.10;;
33644;SDS011;19986;48.190;16.366;2022-10-16T08:50:21;84.80;;;76.60;;
33644;SDS011;19986;48.190;16.366;2022-10-16T08:52:53;84.70;;;76.90;;
33644;SDS011;19986;48.190;16.366;2022-10-16T08:55:31;81.90;;;74.38;;
33644;SDS011;19986;48.190;16.366;2022-10-16T08:58:17;79.03;;;71.82;;
33644;SDS011;19986;48.190;16.366;2022-10-16T09:00:49;78.22;;;71.22;;
33644;SDS011;19986;48.190;16.366;2022-10-16T09:11:46;76.03;;;69.50;;
33644;SDS011;19986;48.190;16.366;2022-10-16T09:16:56;78.20;;;71.40;;
33644;SDS011;19986;48.190;16.366;2022-10-16T09:19:36;71.68;;;65.63;;
33644;SDS011;19986;48.190;16.366;2022-10-16T09:22:10;75.68;;;69.40;;
33644;SDS011;19986;48.190;16.366;2022-10-16T09:24:40;76.55;;;70.05;;
33644;SDS011;19986;48.190;16.366;2022-10-16T09:27:10;75.65;;;68.55;;
33644;SDS011;19986;48.190;16.366;2022-10-16T09:29:37;70.75;;;64.72;;
33644;SDS011;19986;48.190;16.366;2022-10-16T09:32:08;72.38;;;66.28;;
33644;SDS011;19986;48.190;16.366;2022-10-16T09:34:39;72.53;;;66.35;;
33644;SDS011;19986;48.190;16.366;2022-10-16T09:37:17;75.30;;;68.65;;
33644;SDS011;19986;48.190;16.366;2022-10-16T09:39:52;72.65;;;66.65;;
33644;SDS011;19986;48.190;16.366;2022-10-16T09:42:20;73.05;;;67.15;;
33644;SDS011;19986;48.190;16.366;2022-10-16T09:44:56;71.50;;;65.65;;
33644;SDS011;19986;48.190;16.366;2022-10-16T09:47:23;70.63;;;64.82;;
33644;SDS011;19986;48.190;16.366;2022-10-16T09:49:53;74.40;;;68.10;;
33644;SDS011;19986;48.190;16.366;2022-10-16T09:52:31;72.68;;;66.65;;
33644;SDS011;19986;48.190;16.366;2022-10-16T09:55:03;75.57;;;69.47;;
33644;SDS011;19986;48.190;16.366;2022-10-16T09:57:55;74.63;;;68.35;;
33644;SDS011;19986;48.190;16.366;2022-10-16T10:00:21;73.57;;;67.50;;
33644;SDS011;19986;48.190;16.366;2022-10-16T10:02:49;76.80;;;70.18;;
33644;SDS011;19986;48.190;16.366;2022-10-16T10:05:21;74.70;;;68.32;;
33644;SDS011;19986;48.190;16.366;2022-10-16T10:07:56;71.90;;;65.90;;
33644;SDS011;19986;48.190;16.366;2022-10-16T10:10:32;71.65;;;65.70;;
33644;SDS011;19986;48.190;16.366;2022-10-16T10:13:00;71.85;;;65.75;;
33644;SDS011;19986;48.190;16.366;2022-10-16T10:15:27;73.97;;;67.95;;
33644;SDS011;19986;48.190;16.366;2022-10-16T10:17:58;71.35;;;65.28;;
33644;SDS011;19986;48.190;16.366;2022-10-16T10:20:28;71.43;;;64.97;;
33644;SDS011;19986;48.190;16.366;2022-10-16T10:23:19;74.97;;;68.57;;
33644;SDS011;19986;48.190;16.366;2022-10-16T10:29:25;71.57;;;65.38;;
33644;SDS011;19986;48.190;16.366;2022-10-16T10:34:32;75.47;;;68.78;;
33644;SDS011;19986;48.190;16.366;2022-10-16T10:37:05;76.60;;;70.22;;
33644;SDS011;19986;48.190;16.366;2022-10-16T10:39:52;75.57;;;69.07;;
33644;SDS011;19986;48.190;16.366;2022-10-16T10:45:22;75.70;;;69.15;;
33644;SDS011;19986;48.190;16.366;2022-10-16T10:57:03;73.28;;;66.70;;
33644;SDS011;19986;48.190;16.366;2022-10-16T10:59:40;74.35;;;67.93;;
33644;SDS011;19986;48.190;16.366;2022-10-16T11:07:51;71.03;;;65.28;;
33644;SDS011;19986;48.190;16.366;2022-10-16T11:10:28;73.30;;;66.90;;
33644;SDS011;19986;48.190;16.366;2022-10-16T11:13:06;76.85;;;69.95;;
33644;SDS011;19986;48.190;16.366;2022-10-16T11:15:44;73.47;;;67.07;;
33644;SDS011;19986;48.190;16.366;2022-10-16T11:20:54;73.82;;;67.50;;
33644;SDS011;19986;48.190;16.366;2022-10-16T11:23:26;75.75;;;69.25;;
33644;SDS011;19986;48.190;16.366;2022-10-16T11:26:00;77.53;;;70.93;;
33644;SDS011;19986;48.190;16.366;2022-10-16T11:34:32;73.18;;;66.97;;
33644;SDS011;19986;48.190;16.366;2022-10-16T11:36:44;72.60;;;66.35;;
33644;SDS011;19986;48.190;16.366;2022-10-16T11:39:24;76.75;;;70.30;;
33644;SDS011;19986;48.190;16.366;2022-10-16T11:42:00;73.25;;;67.05;;
33644;SDS011;19986;48.190;16.366;2022-10-16T11:47:44;77.20;;;70.75;;
33644;SDS011;19986;48.190;16.366;2022-10-16T11:53:03;78.18;;;71.68;;
33644;SDS011;19986;48.190;16.366;2022-10-16T11:55:45;73.15;;;67.00;;
33644;SDS011;19986;48.190;16.366;2022-10-16T12:01:19;74.95;;;68.78;;
33644;SDS011;19986;48.190;16.366;2022-10-16T12:09:32;77.35;;;70.65;;
33644;SDS011;19986;48.190;16.366;2022-10-16T12:12:01;77.85;;;71.22;;
33644;SDS011;19986;48.190;16.366;2022-10-16T12:16:57;78.30;;;71.30;;
33644;SDS011;19986;48.190;16.366;2022-10-16T12:19:26;79.40;;;72.05;;
33644;SDS011;19986;48.190;16.366;2022-10-16T12:21:55;78.40;;;71.40;;
33644;SDS011;19986;48.190;16.366;2022-10-16T12:26:57;78.80;;;71.68;;
33644;SDS011;19986;48.190;16.366;2022-10-16T12:29:29;77.47;;;70.50;;
33644;SDS011;19986;48.190;16.366;2022-10-16T12:32:19;76.78;;;69.93;;
33644;SDS011;19986;48.190;16.366;2022-10-16T12:35:02;77.65;;;70.70;;
33644;SDS011;19986;48.190;16.366;2022-10-16T12:37:34;78.68;;;71.72;;
33644;SDS011;19986;48.190;16.366;2022-10-16T12:42:47;78.47;;;71.25;;
33644;SDS011;19986;48.190;16.366;2022-10-16T12:45:22;77.75;;;70.85;;
33644;SDS011;19986;48.190;16.366;2022-10-16T12:47:50;79.38;;;72.45;;
33644;SDS011;19986;48.190;16.366;2022-10-16T12:50:35;79.90;;;72.93;;
33644;SDS011;19986;48.190;16.366;2022-10-16T12:53:04;78.97;;;72.07;;
33644;SDS011;19986;48.190;16.366;2022-10-16T12:55:48;76.28;;;69.60;;
33644;SDS011;19986;48.190;16.366;2022-10-16T13:07:23;77.15;;;70.60;;
33644;SDS011;19986;48.190;16.366;2022-10-16T13:15:24;78.00;;;71.18;;
33644;SDS011;19986;48.190;16.366;2022-10-16T13:18:14;79.60;;;72.97;;
33644;SDS011;19986;48.190;16.366;2022-10-16T13:20:51;79.25;;;72.45;;
33644;SDS011;19986;48.190;16.366;2022-10-16T13:23:29;79.55;;;72.55;;
33644;SDS011;19986;48.190;16.366;2022-10-16T13:29:22;78.60;;;71.90;;
33644;SDS011;19986;48.190;16.366;2022-10-16T13:31:48;79.43;;;72.32;;
33644;SDS011;19986;48.190;16.366;2022-10-16T13:34:15;81.28;;;73.38;;
33644;SDS011;19986;48.190;16.366;2022-10-16T13:36:47;77.88;;;70.78;;
33644;SDS011;19986;48.190;16.366;2022-10-16T13:39:26;77.03;;;70.38;;
33644;SDS011;19986;48.190;16.366;2022-10-16T13:42:13;78.90;;;72.13;;
33644;SDS011;19986;48.190;16.366;2022-10-16T13:44:49;77.95;;;71.40;;
33644;SDS011;19986;48.190;16.366;2022-10-16T13:47:20;76.85;;;70.30;;
33644;SDS011;19986;48.190;16.366;2022-10-16T13:52:42;78.72;;;71.97;;
33644;SDS011;19986;48.190;16.366;2022-10-16T13:55:15;78.10;;;71.28;;
33644;SDS011;19986;48.190;16.366;2022-10-16T13:57:43;75.40;;;68.72;;
33644;SDS011;19986;48.190;16.366;2022-10-16T14:02:54;71.03;;;64.90;;
33644;SDS011;19986;48.190;16.366;2022-10-16T14:05:25;73.93;;;67.45;;
33644;SDS011;19986;48.190;16.366;2022-10-16T14:07:52;70.57;;;64.28;;
33644;SDS011;19986;48.190;16.366;2022-10-16T14:10:26;75.00;;;68.53;;
33644;SDS011;19986;48.190;16.366;2022-10-16T14:13:03;72.68;;;66.68;;
33644;SDS011;19986;48.190;16.366;2022-10-16T14:15:31;68.25;;;62.35;;
33644;SDS011;19986;48.190;16.366;2022-10-16T14:17:59;70.45;;;64.28;;
33644;SDS011;19986;48.190;16.366;2022-10-16T14:20:29;70.65;;;64.57;;
33644;SDS011;19986;48.190;16.366;2022-10-16T14:25:31;68.43;;;62.65;;
33644;SDS011;19986;48.190;16.366;2022-10-16T14:28:02;71.28;;;64.82;;
33644;SDS011;19986;48.190;16.366;2022-10-16T14:30:30;67.88;;;61.92;;
33644;SDS011;19986;48.190;16.366;2022-10-16T14:33:02;67.63;;;62.03;;
33644;SDS011;19986;48.190;16.366;2022-10-16T14:35:31;66.32;;;60.72;;
33644;SDS011;19986;48.190;16.366;2022-10-16T14:37:58;67.32;;;61.97;;
33644;SDS011;19986;48.190;16.366;2022-10-16T14:40:47;67.97;;;62.30;;
33644;SDS011;19986;48.190;16.366;2022-10-16T14:43:24;62.92;;;57.47;;
33644;SDS011;19986;48.190;16.366;2022-10-16T14:45:58;65.15;;;60.00;;
33644;SDS011;19986;48.190;16.366;2022-10-16T14:48:24;64.82;;;59.53;;
33644;SDS011;19986;48.190;16.366;2022-10-16T14:50:50;65.47;;;59.85;;
33644;SDS011;19986;48.190;16.366;2022-10-16T14:53:16;64.35;;;59.10;;
33644;SDS011;19986;48.190;16.366;2022-10-16T14:55:42;63.45;;;58.20;;
33644;SDS011;19986;48.190;16.366;2022-10-16T14:58:11;63.40;;;58.08;;
33644;SDS011;19986;48.190;16.366;2022-10-16T15:00:42;63.03;;;57.83;;
33644;SDS011;19986;48.190;16.366;2022-10-16T15:03:08;64.97;;;59.75;;
33644;SDS011;19986;48.190;16.366;2022-10-16T15:05:34;66.07;;;60.53;;
33644;SDS011;19986;48.190;16.366;2022-10-16T15:08:00;65.78;;;60.58;;
33644;SDS011;19986;48.190;16.366;2022-10-16T15:10:26;64.18;;;59.20;;
33644;SDS011;19986;48.190;16.366;2022-10-16T15:12:54;64.25;;;58.50;;
33644;SDS011;19986;48.190;16.366;2022-10-16T15:18:03;64.72;;;59.42;;
33644;SDS011;19986;48.190;16.366;2022-10-16T15:20:34;62.72;;;57.63;;
33644;SDS011;19986;48.190;16.366;2022-10-16T15:23:14;62.33;;;57.20;;
33644;SDS011;19986;48.190;16.366;2022-10-16T15:25:48;64.30;;;59.15;;
33644;SDS011;19986;48.190;16.366;2022-10-16T15:28:19;61.92;;;57.20;;
33644;SDS011;19986;48.190;16.366;2022-10-16T15:30:46;62.13;;;57.17;;
33644;SDS011;19986;48.190;16.366;2022-10-16T15:33:15;62.58;;;57.53;;
33644;SDS011;19986;48.190;16.366;2022-10-16T15:35:46;64.00;;;58.95;;
33644;SDS011;19986;48.190;16.366;2022-10-16T15:38:16;61.60;;;56.42;;
33644;SDS011;19986;48.190;16.366;2022-10-16T15:40:43;62.97;;;57.65;;
33644;SDS011;19986;48.190;16.366;2022-10-16T15:43:10;62.95;;;57.63;;
33644;SDS011;19986;48.190;16.366;2022-10-16T15:45:37;62.38;;;57.03;;
33644;SDS011;19986;48.190;16.366;2022-10-16T15:48:03;62.58;;;57.35;;
33644;SDS011;19986;48.190;16.366;2022-10-16T15:50:29;63.75;;;58.28;;
33644;SDS011;19986;48.190;16.366;2022-10-16T15:52:56;62.00;;;56.75;;
33644;SDS011;19986;48.190;16.366;2022-10-16T15:55:22;64.32;;;58.85;;
33644;SDS011;19986;48.190;16.366;2022-10-16T15:57:48;63.70;;;58.55;;
33644;SDS011;19986;48.190;16.366;2022-10-16T16:00:16;59.72;;;54.83;;
33644;SDS011;19986;48.190;16.366;2022-10-16T16:02:48;64.13;;;58.60;;
33644;SDS011;19986;48.190;16.366;2022-10-16T16:05:16;63.50;;;58.42;;
33644;SDS011;19986;48.190;16.366;2022-10-16T16:07:42;62.00;;;56.40;;
33644;SDS011;19986;48.190;16.366;2022-10-16T16:10:09;59.92;;;55.00;;
33644;SDS011;19986;48.190;16.366;2022-10-16T16:12:36;62.50;;;57.42;;
33644;SDS011;19986;48.190;16.366;2022-10-16T16:15:03;61.53;;;56.47;;
33644;SDS011;19986;48.190;16.366;2022-10-16T16:17:31;61.05;;;56.03;;
33644;SDS011;19986;48.190;16.366;2022-10-16T16:19:58;63.42;;;58.05;;
33644;SDS011;19986;48.190;16.366;2022-10-16T16:22:24;61.25;;;56.25;;
33644;SDS011;19986;48.190;16.366;2022-10-16T16:24:50;62.75;;;57.40;;
33644;SDS011;19986;48.190;16.366;2022-10-16T16:27:17;64.80;;;59.38;;